PWSweather.com
Personal Weather Stations
Station Observations
PEISSEN1
PeissenbergDE

PeissenbergDE

Lat: 47.791845, Lon: 11.064121

Elevation: 1929

Station Type: Davis Vantage Pro 2

wetter-peissenberg.de

High Low Average
Temperature 59.0°F15.0°C 45.1°F7.3°C 50.5°F10.3°C
Dew Point 50.7°F10.4°C 42.4°F5.8°C 46.8°F8.2°C
Winds 6.0 mph 9.7 kmh Calm Calm 2.0 mph SW3.2 kmh SW
Wind Gusts 11.0 mph17.7 kmh -- 4.0 mph6.4 kmh
Humidity 95% 69% 88%
Pressure 30.01 in1016.3 mb 29.97 in1014.9 mb -
Precipitation 0.55 in14.0 mm - -
Hour Temp Dew Point Humidity Winds Wind Gusts Pressure Precip Precip Rate Daily Precip Total
12:00 AM 47.5°F8.6°C 46.1°F7.8°C 95% 0.8 mph W1.3 kmh W 6.0 mph9.7 kmh 29.99 in1015.6 mb 0.00 in0.0 mm 0.00 in0.0 mm 0.55 in14.0 mm
12:10 AM 47.3°F8.5°C 45.7°F7.6°C 94% 0.8 mph N1.3 kmh N 4.0 mph6.4 kmh 29.98 in1015.2 mb 0.00 in0.0 mm 0.00 in0.0 mm 0.55 in14.0 mm
12:20 AM 47.5°F8.6°C 45.8°F7.7°C 94% 0.7 mph W1.1 kmh W 3.0 mph4.8 kmh 29.98 in1015.2 mb 0.00 in0.0 mm 0.00 in0.0 mm 0.55 in14.0 mm
02:00 AM 47.5°F8.6°C 45.6°F7.6°C 93% 0.4 mph WSW0.6 kmh WSW 3.0 mph4.8 kmh 29.99 in1015.6 mb 0.00 in0.0 mm 0.00 in0.0 mm 0.02 in0.5 mm
02:10 AM 47.3°F8.5°C 45.4°F7.4°C 93% 2.7 mph N4.3 kmh N 5.0 mph8.0 kmh 29.99 in1015.6 mb 0.00 in0.0 mm 0.00 in0.0 mm 0.02 in0.5 mm
02:20 AM 47.3°F8.5°C 45.4°F7.4°C 93% 2.0 mph W3.2 kmh W 6.0 mph9.7 kmh 29.98 in1015.2 mb 0.00 in0.0 mm 0.00 in0.0 mm 0.03 in0.8 mm
04:00 AM 47.1°F8.4°C 45.2°F7.3°C 93% 1.8 mph N2.9 kmh N 4.0 mph6.4 kmh 29.97 in1014.9 mb 0.00 in0.0 mm 0.00 in0.0 mm 0.09 in2.3 mm
04:10 AM 47.1°F8.4°C 45.2°F7.3°C 93% 3.0 mph N4.8 kmh N 8.0 mph12.9 kmh 29.97 in1014.9 mb 0.00 in0.0 mm 0.00 in0.0 mm 0.09 in2.3 mm
04:20 AM 47.1°F8.4°C 45.2°F7.3°C 93% 0.9 mph WSW1.4 kmh WSW 3.0 mph4.8 kmh 29.97 in1014.9 mb 0.00 in0.0 mm 0.00 in0.0 mm 0.09 in2.3 mm
06:00 AM 46.9°F8.3°C 45.0°F7.2°C 93% 3.3 mph WNW5.3 kmh WNW 7.0 mph11.3 kmh 29.97 in1014.9 mb 0.00 in0.0 mm 0.00 in0.0 mm 0.16 in4.1 mm
06:10 AM 46.9°F8.3°C 45.0°F7.2°C 93% 3.0 mph WSW4.8 kmh WSW 9.0 mph14.5 kmh 29.97 in1014.9 mb 0.01 in0.3 mm 0.05 in1.3 mm 0.17 in4.3 mm
06:20 AM 46.9°F8.3°C 45.0°F7.2°C 93% 4.8 mph N7.7 kmh N 10.0 mph16.1 kmh 29.97 in1014.9 mb 0.00 in0.0 mm 0.00 in0.0 mm 0.17 in4.3 mm
08:00 AM 47.1°F8.4°C 45.2°F7.3°C 93% 4.1 mph W6.6 kmh W 8.0 mph12.9 kmh 29.98 in1015.2 mb 0.00 in0.0 mm 0.00 in0.0 mm 0.21 in5.3 mm
08:10 AM 47.3°F8.5°C 45.4°F7.4°C 93% 5.7 mph WSW9.2 kmh WSW 10.0 mph16.1 kmh 29.98 in1015.2 mb 0.00 in0.0 mm 0.00 in0.0 mm 0.21 in5.3 mm
08:20 AM 47.5°F8.6°C 45.6°F7.6°C 93% 2.1 mph WSW3.4 kmh WSW 5.0 mph8.0 kmh 29.99 in1015.6 mb 0.00 in0.0 mm 0.00 in0.0 mm 0.21 in5.3 mm
10:00 AM 49.3°F9.6°C 47.3°F8.5°C 93% 1.4 mph WSW2.3 kmh WSW 4.0 mph6.4 kmh 30.00 in1015.9 mb 0.00 in0.0 mm 0.00 in0.0 mm 0.24 in6.1 mm
10:10 AM 49.5°F9.7°C 47.5°F8.6°C 93% 0.2 mph N0.3 kmh N 1.0 mph1.6 kmh 30.00 in1015.9 mb 0.00 in0.0 mm 0.00 in0.0 mm 0.24 in6.1 mm
10:20 AM 49.6°F9.8°C 47.7°F8.7°C 93% 1.9 mph W3.1 kmh W 4.0 mph6.4 kmh 30.01 in1016.3 mb 0.00 in0.0 mm 0.00 in0.0 mm 0.25 in6.4 mm
12:00 PM 50.7°F10.4°C 48.8°F9.3°C 93% 2.9 mph W4.7 kmh W 7.0 mph11.3 kmh 30.01 in1016.3 mb 0.00 in0.0 mm 0.00 in0.0 mm 0.38 in9.7 mm
12:10 PM 52.2°F11.2°C 49.9°F9.9°C 92% 6.0 mph N9.7 kmh N 11.0 mph17.7 kmh 30.01 in1016.3 mb 0.00 in0.0 mm 0.00 in0.0 mm 0.38 in9.7 mm
12:20 PM 53.2°F11.8°C 50.7°F10.4°C 91% 4.3 mph WSW6.9 kmh WSW 10.0 mph16.1 kmh 30.01 in1016.3 mb 0.00 in0.0 mm 0.00 in0.0 mm 0.39 in9.9 mm
02:00 PM 57.7°F14.3°C 49.9°F9.9°C 75% 2.7 mph NW4.3 kmh NW 7.0 mph11.3 kmh 30.01 in1016.3 mb 0.00 in0.0 mm 0.00 in0.0 mm 0.39 in9.9 mm
02:10 PM 57.9°F14.4°C 49.3°F9.6°C 73% 3.9 mph WSW6.3 kmh WSW 8.0 mph12.9 kmh 30.01 in1016.3 mb 0.00 in0.0 mm 0.00 in0.0 mm 0.39 in9.9 mm
02:20 PM 58.3°F14.6°C 49.7°F9.8°C 73% 3.9 mph SW6.3 kmh SW 8.0 mph12.9 kmh 30.00 in1015.9 mb 0.00 in0.0 mm 0.00 in0.0 mm 0.39 in9.9 mm
04:00 PM 58.8°F14.9°C 49.4°F9.7°C 71% Calm Calm -- 29.99 in1015.6 mb 0.00 in0.0 mm 0.00 in0.0 mm 0.39 in9.9 mm
04:10 PM 59.0°F15.0°C 49.6°F9.8°C 71% 2.0 mph WSW3.2 kmh WSW 7.0 mph11.3 kmh 29.98 in1015.2 mb 0.00 in0.0 mm 0.00 in0.0 mm 0.39 in9.9 mm
04:20 PM 58.6°F14.8°C 48.5°F9.2°C 69% 3.0 mph W4.8 kmh W 4.0 mph6.4 kmh 29.98 in1015.2 mb 0.00 in0.0 mm 0.00 in0.0 mm 0.39 in9.9 mm
06:00 PM 57.9°F14.4°C 50.4°F10.2°C 76% Calm Calm -- 29.97 in1014.9 mb 0.00 in0.0 mm 0.00 in0.0 mm 0.39 in9.9 mm
06:10 PM 57.4°F14.1°C 50.6°F10.3°C 78% Calm Calm -- 29.98 in1015.2 mb 0.00 in0.0 mm 0.00 in0.0 mm 0.39 in9.9 mm
06:20 PM 56.5°F13.6°C 50.4°F10.2°C 80% Calm Calm -- 29.98 in1015.2 mb 0.00 in0.0 mm 0.00 in0.0 mm 0.39 in9.9 mm
08:00 PM 49.8°F9.9°C 46.1°F7.8°C 87% Calm Calm -- 29.99 in1015.6 mb 0.00 in0.0 mm 0.00 in0.0 mm 0.39 in9.9 mm
08:10 PM 49.3°F9.6°C 45.9°F7.7°C 88% Calm Calm -- 29.99 in1015.6 mb 0.00 in0.0 mm 0.00 in0.0 mm 0.39 in9.9 mm
08:20 PM 48.9°F9.4°C 45.5°F7.5°C 88% Calm Calm -- 30.00 in1015.9 mb 0.00 in0.0 mm 0.00 in0.0 mm 0.39 in9.9 mm
10:00 PM 45.9°F7.7°C 43.1°F6.2°C 90% Calm Calm -- 30.01 in1016.3 mb 0.00 in0.0 mm 0.00 in0.0 mm 0.39 in9.9 mm
10:10 PM 45.5°F7.5°C 42.7°F5.9°C 90% Calm Calm -- 30.01 in1016.3 mb 0.00 in0.0 mm 0.00 in0.0 mm 0.39 in9.9 mm
10:20 PM 45.1°F7.3°C 42.4°F5.8°C 90% Calm Calm -- 30.01 in1016.3 mb 0.00 in0.0 mm 0.00 in0.0 mm 0.39 in9.9 mm